Esperanza — WDD8385 — position and weather

sailwx.info

Track history (hours):
 
Tides and Currents Weather Stations Pressure Air Temp Water Temp Dewpoint Dewpoint Depression Visibility Wind Speed Wind Dir Waves Ship Positions

Esperanza

Owner: Hambly, James, Maine, ME. More information available from US FCC via Universal Licensing System and Coast Guard Vessel Documentation Center.

Last reported at 2017-Aug-29 18:35 UTC. Time now 2017-Oct-17 20:32 UTC.
Position N 43°59' W 068°27'.
Warning: this ship's position is 49 days out of date.

Length 11 m.

Type: Sailing vessel. MMSI: 367198460.

Date/timePositionNaut miles runAvg speedWind from/ knotsBaromVisibWave heightAir tempDewpointWater temp
2017-Aug-29 18:35N 43°59' W 068°27'1 6.1
2017-Aug-29 18:27N 43°59' W 068°26'2 5.1
2017-Aug-29 18:00N 43°59' W 068°22'2 4.1
2017-Aug-29 17:30N 44°01' W 068°23'3 5.8
2017-Aug-29 16:59N 44°03' W 068°25'3 5.9
2017-Aug-29 16:30N 44°06' W 068°27'2 4.7
2017-Aug-29 16:00N 44°08' W 068°27'0 0.1
2017-Aug-29 15:30N 44°08' W 068°27'0 0.0
2017-Aug-28 21:44N 44°08' W 068°27'0 0.2
2017-Aug-28 21:29N 44°08' W 068°27'1 2.0
2017-Aug-28 21:01N 44°07' W 068°27'1 2.9
2017-Aug-28 20:30N 44°06' W 068°28'3 5.2
2017-Aug-28 20:00N 44°04' W 068°29'2 4.7
2017-Aug-28 19:30N 44°02' W 068°31'3 6.0
2017-Aug-28 19:00N 43°60' W 068°34'3 5.9
2017-Aug-28 18:30N 43°57' W 068°37'3 5.9
2017-Aug-28 18:00N 43°55' W 068°39'2 4.7
2017-Aug-28 17:30N 43°53' W 068°41'3 5.7
2017-Aug-28 17:00N 43°51' W 068°44'3 5.4
2017-Aug-28 16:30N 43°50' W 068°47'3 5.5
2017-Aug-28 16:00N 43°48' W 068°50'1 2.1
2017-Aug-28 15:30N 43°47' W 068°51'3 5.6
2017-Aug-28 15:00N 43°50' W 068°52'2 0.1
2017-Aug-27 17:40N 43°52' W 068°53'1 4.9
2017-Aug-27 17:30N 43°52' W 068°52'2 3.9
2017-Aug-27 17:00N 43°54' W 068°53'3 5.9
2017-Aug-27 16:30N 43°54' W 068°57'2 4.4
2017-Aug-27 16:00N 43°55' W 069°00'2 3.3
2017-Aug-27 15:30N 43°56' W 069°02'2 3.7
2017-Aug-27 15:00N 43°56' W 069°05'2 3.3
2017-Aug-27 14:30N 43°56' W 069°07'2 4.5
2017-Aug-27 14:00N 43°57' W 069°10'2 3.4
2017-Aug-27 13:28N 43°58' W 069°12'0 0.0
2017-Aug-26 19:29N 43°58' W 069°12'1 2.2
2017-Aug-26 19:00N 43°57' W 069°11'2 3.4
2017-Aug-26 18:29N 43°55' W 069°12'2 4.2
2017-Aug-26 17:58N 43°54' W 069°14'2 4.6
2017-Aug-26 17:28N 43°52' W 069°16'23 4.2
2017-Aug-26 11:58N 43°44' W 069°45'2 5.1
2017-Aug-26 11:30N 43°42' W 069°48'3 5.6
2017-Aug-26 11:00N 43°42' W 069°52'3 5.5
2017-Aug-26 10:30N 43°42' W 069°56'3 5.7
2017-Aug-26 10:00N 43°42' W 069°60'9 0.6
2017-Aug-25 19:02N 43°43' W 070°12'0 0.0
2017-Aug-25 18:56N 43°43' W 070°12'0 0.0
2017-Aug-25 18:30N 43°43' W 070°12'0 0.0
2017-Aug-25 18:00N 43°43' W 070°12'0 0.0
2017-Aug-25 17:29N 43°43' W 070°12'0 0.0
2017-Aug-25 16:59N 43°43' W 070°12'0 0.0
2017-Aug-25 16:29N 43°43' W 070°12'0 0.0
2017-Aug-25 15:59N 43°43' W 070°12'0 0.0
2017-Aug-25 15:29N 43°43' W 070°12'0 0.0
2017-Aug-25 14:59N 43°43' W 070°12'0 0.0
2017-Aug-25 14:30N 43°43' W 070°12'0 0.0
2017-Aug-25 13:29N 43°43' W 070°12'0 0.0
2017-Aug-25 12:56N 43°43' W 070°12'0 0.0
2017-Aug-25 12:30N 43°43' W 070°12'0 0.0
2017-Aug-25 12:00N 43°43' W 070°12'0 0.0
2017-Aug-25 11:27N 43°43' W 070°12'0 0.0
2017-Aug-25 10:48N 43°43' W 070°12'0 0.0
2017-Aug-25 10:30N 43°43' W 070°12'0 0.0
2017-Aug-25 09:57N 43°43' W 070°12'0 0.0
2017-Aug-25 09:12N 43°43' W 070°12'0 0.0
2017-Aug-25 09:00N 43°43' W 070°12'0 0.0
2017-Aug-25 07:38N 43°43' W 070°12'0 0.0
2017-Aug-25 07:14N 43°43' W 070°12'0 0.0
2017-Aug-25 06:59N 43°43' W 070°12'0 0.0
2017-Aug-25 06:29N 43°43' W 070°12'0 0.0
2017-Aug-25 05:59N 43°43' W 070°12'0 0.0
2017-Aug-25 05:28N 43°43' W 070°12'0 0.0
2017-Aug-25 04:58N 43°43' W 070°12'0 0.0
2017-Aug-25 04:25N 43°43' W 070°12'0 0.0
2017-Aug-25 03:58N 43°43' W 070°12'0 0.0
2017-Aug-25 03:28N 43°43' W 070°12'0 0.0
2017-Aug-25 02:58N 43°43' W 070°12'0 0.0
2017-Aug-25 02:28N 43°43' W 070°12'0 0.0
2017-Aug-25 01:58N 43°43' W 070°12'0 0.0
2017-Aug-25 01:28N 43°43' W 070°12'0 0.0
2017-Aug-25 00:52N 43°43' W 070°12'0 0.0
2017-Aug-25 00:30N 43°43' W 070°12'0 0.0
2017-Aug-24 22:12N 43°43' W 070°12'0 0.0
2017-Aug-24 22:00N 43°43' W 070°12'0 0.0
2017-Aug-24 21:12N 43°43' W 070°12'0 0.0
2017-Aug-24 20:54N 43°43' W 070°12'0 0.0
2017-Aug-24 20:30N 43°43' W 070°12'0 0.0
2017-Aug-24 18:51N 43°43' W 070°12'0 0.0
2017-Aug-24 18:30N 43°43' W 070°12'0 0.0
2017-Aug-24 18:00N 43°43' W 070°12'0 0.0
2017-Aug-24 17:09N 43°43' W 070°12'0 0.0
2017-Aug-24 16:54N 43°43' W 070°12'0 0.0
2017-Aug-24 16:30N 43°43' W 070°12'0 0.0
2017-Aug-24 16:00N 43°43' W 070°12'0 0.0
2017-Aug-24 15:30N 43°43' W 070°12'0 0.0
2017-Aug-24 15:00N 43°43' W 070°12'0 0.0
2017-Aug-24 14:30N 43°43' W 070°12'0 0.0
2017-Aug-24 14:00N 43°43' W 070°12'0 0.0
2017-Aug-24 13:30N 43°43' W 070°12'0 0.0
2017-Aug-24 13:00N 43°43' W 070°12'0 0.0
2017-Aug-24 10:54N 43°43' W 070°12'0 0.0
2017-Aug-24 10:15N 43°43' W 070°12'0 0.0
2017-Aug-24 09:59N 43°43' W 070°12'0 0.0
2017-Aug-24 09:08N 43°43' W 070°12'0 0.0
2017-Aug-24 08:50N 43°43' W 070°12'0 0.0
2017-Aug-24 08:11N 43°43' W 070°12'0 0.0
2017-Aug-24 07:53N 43°43' W 070°12'0 0.0
2017-Aug-24 07:29N 43°43' W 070°12'0 0.0
2017-Aug-24 06:56N 43°43' W 070°12'0 0.0
2017-Aug-24 05:35N 43°43' W 070°12'0 0.0
2017-Aug-24 05:29N 43°43' W 070°12'0 0.0
2017-Aug-24 04:59N 43°43' W 070°12'0 0.0
2017-Aug-24 04:29N 43°43' W 070°12'0 0.0
2017-Aug-24 03:56N 43°43' W 070°12'0 0.0
2017-Aug-24 03:29N 43°43' W 070°12'0 0.0
2017-Aug-24 02:59N 43°43' W 070°12'0 0.0
2017-Aug-24 02:29N 43°43' W 070°12'0 0.0
2017-Aug-24 01:59N 43°43' W 070°12'0 0.0
2017-Aug-24 01:29N 43°43' W 070°12'0 0.0
2017-Aug-24 00:59N 43°43' W 070°12'0 0.0
2017-Aug-23 15:00N 43°43' W 070°12'0 0.0
2017-Aug-23 14:00N 43°43' W 070°12'0 0.0
2017-Aug-23 13:30N 43°43' W 070°12'0 0.0
2017-Aug-23 13:00N 43°43' W 070°12'0 0.0
2017-Aug-23 12:28N 43°43' W 070°12'0 0.0
2017-Aug-23 11:58N 43°43' W 070°12'0 0.0
2017-Aug-23 11:28N 43°43' W 070°12'0 0.0
2017-Aug-23 10:58N 43°43' W 070°12'0 0.0
2017-Aug-23 10:28N 43°43' W 070°12'0 0.0
2017-Aug-23 09:58N 43°43' W 070°12'0 0.0
2017-Aug-23 09:28N 43°43' W 070°12'0 0.0
2017-Aug-23 08:58N 43°43' W 070°12'0 0.0
2017-Aug-23 08:28N 43°43' W 070°12'0 0.0
2017-Aug-23 07:58N 43°43' W 070°12'0 0.0
2017-Aug-23 07:28N 43°43' W 070°12'0 0.0
2017-Aug-23 06:59N 43°43' W 070°12'0 0.0
2017-Aug-23 06:30N 43°43' W 070°12'0 0.0
2017-Aug-23 05:54N 43°43' W 070°12'0 0.0
2017-Aug-23 05:27N 43°43' W 070°12'0 0.0
2017-Aug-23 04:06N 43°43' W 070°12'0 0.0
2017-Aug-23 03:57N 43°43' W 070°12'0 0.0
2017-Aug-23 03:28N 43°43' W 070°12'0 0.0
2017-Aug-23 02:58N 43°43' W 070°12'0 0.0
2017-Aug-23 02:28N 43°43' W 070°12'0 0.0
2017-Aug-23 02:00N 43°43' W 070°12'0 0.0
2017-Aug-23 01:28N 43°43' W 070°12'0 0.0
2017-Aug-23 00:58N 43°43' W 070°12'0 0.0
2017-Aug-23 00:25N 43°43' W 070°12'0 0.0
2017-Aug-22 23:58N 43°43' W 070°12'0 0.0
2017-Aug-22 23:29N 43°43' W 070°12'0 0.0
2017-Aug-22 22:59N 43°43' W 070°12'0 0.0
2017-Aug-22 22:29N 43°43' W 070°12'0 0.0
2017-Aug-22 21:58N 43°43' W 070°12'0 0.0
2017-Aug-22 21:27N 43°43' W 070°12'0 0.0
2017-Aug-22 21:00N 43°43' W 070°12'0 0.0
2017-Aug-22 20:28N 43°43' W 070°12'0 0.0
2017-Aug-22 20:00N 43°43' W 070°12'0 0.0
2017-Aug-22 19:28N 43°43' W 070°12'0 0.0
2017-Aug-22 18:58N 43°43' W 070°12'0 0.0
2017-Aug-22 18:28N 43°43' W 070°12'0 0.0
2017-Aug-22 17:55N 43°43' W 070°12'0 0.0
2017-Aug-22 17:28N 43°43' W 070°12'0 0.0
2017-Aug-22 16:58N 43°43' W 070°12'0 0.0
2017-Aug-22 16:28N 43°43' W 070°12'0 0.0
2017-Aug-22 16:00N 43°43' W 070°12'0 0.0
2017-Aug-22 15:30N 43°43' W 070°12'0 0.0
2017-Aug-22 14:54N 43°43' W 070°12'0 0.0
2017-Aug-22 14:30N 43°43' W 070°12'0 0.0
2017-Aug-22 14:00N 43°43' W 070°12'0 0.0
2017-Aug-22 13:30N 43°43' W 070°12'0 0.0
2017-Aug-22 13:00N 43°43' W 070°12'0 0.0
2017-Aug-22 12:30N 43°43' W 070°12'0 0.0
2017-Aug-22 11:57N 43°43' W 070°12'0 0.0
2017-Aug-22 11:30N 43°43' W 070°12'0 0.0
2017-Aug-22 11:00N 43°43' W 070°12'0 0.0
2017-Aug-22 10:30N 43°43' W 070°12'0 0.0
2017-Aug-22 10:00N 43°43' W 070°12'0 0.0
2017-Aug-22 09:30N 43°43' W 070°12'0 0.0
2017-Aug-22 08:57N 43°43' W 070°12'0 0.0
2017-Aug-22 07:15N 43°43' W 070°12'0 0.0
2017-Aug-22 07:00N 43°43' W 070°12'0 0.0
2017-Aug-22 06:30N 43°43' W 070°12'0 0.0
2017-Aug-22 05:57N 43°43' W 070°12'0 0.0
2017-Aug-22 05:27N 43°43' W 070°12'0 0.0
2017-Aug-22 04:54N 43°43' W 070°12'0 0.0
2017-Aug-22 04:21N 43°43' W 070°12'0 0.0
2017-Aug-22 03:50N 43°43' W 070°12'0 0.0
2017-Aug-22 03:26N 43°43' W 070°12'0 0.0
2017-Aug-22 02:59N 43°43' W 070°12'0 0.0
2017-Aug-22 02:26N 43°43' W 070°12'0 0.0
2017-Aug-22 01:56N 43°43' W 070°12'0 0.0
2017-Aug-22 01:29N 43°43' W 070°12'0 0.0
2017-Aug-22 00:59N 43°43' W 070°12'0 0.0
2017-Aug-22 00:29N 43°43' W 070°12'0 0.0
2017-Aug-21 23:59N 43°43' W 070°12'0 0.0
2017-Aug-21 23:29N 43°43' W 070°12'0 0.0
2017-Aug-21 22:59N 43°43' W 070°12'0 0.0
2017-Aug-21 22:30N 43°43' W 070°12'0 0.0
2017-Aug-21 22:00N 43°43' W 070°12'0 0.0
2017-Aug-21 21:30N 43°43' W 070°12'0 0.0
2017-Aug-21 21:00N 43°43' W 070°12'0 0.0
2017-Aug-21 20:27N 43°43' W 070°12'0 0.0
2017-Aug-21 20:00N 43°43' W 070°12'0 0.0
2017-Aug-21 19:29N 43°43' W 070°12'0 0.0
2017-Aug-21 18:59N 43°43' W 070°12'0 0.0
2017-Aug-21 18:29N 43°43' W 070°12'0 0.0
2017-Aug-21 17:57N 43°43' W 070°12'0 0.0
2017-Aug-21 17:24N 43°43' W 070°12'0 0.0
2017-Aug-21 16:57N 43°43' W 070°12'0 0.0
2017-Aug-21 16:30N 43°43' W 070°12'0 0.0
2017-Aug-21 16:00N 43°43' W 070°12'0 0.0
2017-Aug-21 15:30N 43°43' W 070°12'0 0.0
2017-Aug-21 15:00N 43°43' W 070°12'0 0.0
2017-Aug-21 14:30N 43°43' W 070°12'0 0.0
2017-Aug-21 14:00N 43°43' W 070°12'0 0.0
2017-Aug-21 13:27N 43°43' W 070°12'0 0.0
2017-Aug-21 13:00N 43°43' W 070°12'0 0.0
2017-Aug-21 12:30N 43°43' W 070°12'0 0.0
2017-Aug-21 11:57N 43°43' W 070°12'0 0.0
2017-Aug-21 11:30N 43°43' W 070°12'0 0.0
2017-Aug-21 10:57N 43°43' W 070°12'0 0.0
2017-Aug-21 10:30N 43°43' W 070°12'0 0.0
2017-Aug-21 10:00N 43°43' W 070°12'0 0.0
2017-Aug-21 09:30N 43°43' W 070°12'0 0.0
2017-Aug-21 09:00N 43°43' W 070°12'0 0.0
2017-Aug-21 08:30N 43°43' W 070°12'0 0.0
2017-Aug-21 08:00N 43°43' W 070°12'0 0.0
2017-Aug-21 07:30N 43°43' W 070°12'0 0.0
2017-Aug-21 07:00N 43°43' W 070°12'0 0.0
2017-Aug-21 06:30N 43°43' W 070°12'0 0.0
2017-Aug-21 06:00N 43°43' W 070°12'0 0.0
2017-Aug-21 05:30N 43°43' W 070°12'0 0.0
2017-Aug-21 04:57N 43°43' W 070°12'0 0.0
2017-Aug-21 04:27N 43°43' W 070°12'0 0.0
2017-Aug-21 03:57N 43°43' W 070°12'0 0.0
2017-Aug-21 03:30N 43°43' W 070°12'0 0.0
2017-Aug-21 02:57N 43°43' W 070°12'0 0.0
2017-Aug-21 02:27N 43°43' W 070°12'0 0.0
2017-Aug-21 02:00N 43°43' W 070°12'0 0.0
2017-Aug-21 01:30N 43°43' W 070°12'0 0.0
2017-Aug-21 01:00N 43°43' W 070°12'0 0.0
2017-Aug-21 00:30N 43°43' W 070°12'0 0.7
2017-Aug-20 23:59N 43°44' W 070°12'0 0.7
2017-Aug-20 23:30N 43°43' W 070°12'  
Track history (hours):
 
Tides and Currents Weather Stations Pressure Air Temp Water Temp Dewpoint Dewpoint Depression Visibility Wind Speed Wind Dir Waves Ship Positions

Esperanza

Owner: Hambly, James, Maine, ME. More information available from US FCC via Universal Licensing System and Coast Guard Vessel Documentation Center.

Last reported at 2017-Aug-29 18:35 UTC. Time now 2017-Oct-17 20:32 UTC.
Position N 43°59' W 068°27'.
Warning: this ship's position is 49 days out of date.

Length 11 m.

Type: Sailing vessel. MMSI: 367198460.

Date/timePositionNaut miles runAvg speedWind from/ knotsBaromVisibWave heightAir tempDewpointWater temp
2017-Aug-29 18:35N 43°59' W 068°27'1 6.1
2017-Aug-29 18:27N 43°59' W 068°26'2 5.1
2017-Aug-29 18:00N 43°59' W 068°22'2 4.1
2017-Aug-29 17:30N 44°01' W 068°23'3 5.8
2017-Aug-29 16:59N 44°03' W 068°25'3 5.9
2017-Aug-29 16:30N 44°06' W 068°27'2 4.7
2017-Aug-29 16:00N 44°08' W 068°27'0 0.1
2017-Aug-29 15:30N 44°08' W 068°27'0 0.0
2017-Aug-28 21:44N 44°08' W 068°27'0 0.2
2017-Aug-28 21:29N 44°08' W 068°27'1 2.0
2017-Aug-28 21:01N 44°07' W 068°27'1 2.9
2017-Aug-28 20:30N 44°06' W 068°28'3 5.2
2017-Aug-28 20:00N 44°04' W 068°29'2 4.7
2017-Aug-28 19:30N 44°02' W 068°31'3 6.0
2017-Aug-28 19:00N 43°60' W 068°34'3 5.9
2017-Aug-28 18:30N 43°57' W 068°37'3 5.9
2017-Aug-28 18:00N 43°55' W 068°39'2 4.7
2017-Aug-28 17:30N 43°53' W 068°41'3 5.7
2017-Aug-28 17:00N 43°51' W 068°44'3 5.4
2017-Aug-28 16:30N 43°50' W 068°47'3 5.5
2017-Aug-28 16:00N 43°48' W 068°50'1 2.1
2017-Aug-28 15:30N 43°47' W 068°51'3 5.6
2017-Aug-28 15:00N 43°50' W 068°52'2 0.1
2017-Aug-27 17:40N 43°52' W 068°53'1 4.9
2017-Aug-27 17:30N 43°52' W 068°52'2 3.9
2017-Aug-27 17:00N 43°54' W 068°53'3 5.9
2017-Aug-27 16:30N 43°54' W 068°57'2 4.4
2017-Aug-27 16:00N 43°55' W 069°00'2 3.3
2017-Aug-27 15:30N 43°56' W 069°02'2 3.7
2017-Aug-27 15:00N 43°56' W 069°05'2 3.3
2017-Aug-27 14:30N 43°56' W 069°07'2 4.5
2017-Aug-27 14:00N 43°57' W 069°10'2 3.4
2017-Aug-27 13:28N 43°58' W 069°12'0 0.0
2017-Aug-26 19:29N 43°58' W 069°12'1 2.2
2017-Aug-26 19:00N 43°57' W 069°11'2 3.4
2017-Aug-26 18:29N 43°55' W 069°12'2 4.2
2017-Aug-26 17:58N 43°54' W 069°14'2 4.6
2017-Aug-26 17:28N 43°52' W 069°16'23 4.2
2017-Aug-26 11:58N 43°44' W 069°45'2 5.1
2017-Aug-26 11:30N 43°42' W 069°48'3 5.6
2017-Aug-26 11:00N 43°42' W 069°52'3 5.5
2017-Aug-26 10:30N 43°42' W 069°56'3 5.7
2017-Aug-26 10:00N 43°42' W 069°60'9 0.6
2017-Aug-25 19:02N 43°43' W 070°12'0 0.0
2017-Aug-25 18:56N 43°43' W 070°12'0 0.0
2017-Aug-25 18:30N 43°43' W 070°12'0 0.0
2017-Aug-25 18:00N 43°43' W 070°12'0 0.0
2017-Aug-25 17:29N 43°43' W 070°12'0 0.0
2017-Aug-25 16:59N 43°43' W 070°12'0 0.0
2017-Aug-25 16:29N 43°43' W 070°12'0 0.0
2017-Aug-25 15:59N 43°43' W 070°12'0 0.0
2017-Aug-25 15:29N 43°43' W 070°12'0 0.0
2017-Aug-25 14:59N 43°43' W 070°12'0 0.0
2017-Aug-25 14:30N 43°43' W 070°12'0 0.0
2017-Aug-25 13:29N 43°43' W 070°12'0 0.0
2017-Aug-25 12:56N 43°43' W 070°12'0 0.0
2017-Aug-25 12:30N 43°43' W 070°12'0 0.0
2017-Aug-25 12:00N 43°43' W 070°12'0 0.0
2017-Aug-25 11:27N 43°43' W 070°12'0 0.0
2017-Aug-25 10:48N 43°43' W 070°12'0 0.0
2017-Aug-25 10:30N 43°43' W 070°12'0 0.0
2017-Aug-25 09:57N 43°43' W 070°12'0 0.0
2017-Aug-25 09:12N 43°43' W 070°12'0 0.0
2017-Aug-25 09:00N 43°43' W 070°12'0 0.0
2017-Aug-25 07:38N 43°43' W 070°12'0 0.0
2017-Aug-25 07:14N 43°43' W 070°12'0 0.0
2017-Aug-25 06:59N 43°43' W 070°12'0 0.0
2017-Aug-25 06:29N 43°43' W 070°12'0 0.0
2017-Aug-25 05:59N 43°43' W 070°12'0 0.0
2017-Aug-25 05:28N 43°43' W 070°12'0 0.0
2017-Aug-25 04:58N 43°43' W 070°12'0 0.0
2017-Aug-25 04:25N 43°43' W 070°12'0 0.0
2017-Aug-25 03:58N 43°43' W 070°12'0 0.0
2017-Aug-25 03:28N 43°43' W 070°12'0 0.0
2017-Aug-25 02:58N 43°43' W 070°12'0 0.0
2017-Aug-25 02:28N 43°43' W 070°12'0 0.0
2017-Aug-25 01:58N 43°43' W 070°12'0 0.0
2017-Aug-25 01:28N 43°43' W 070°12'0 0.0
2017-Aug-25 00:52N 43°43' W 070°12'0 0.0
2017-Aug-25 00:30N 43°43' W 070°12'0 0.0
2017-Aug-24 22:12N 43°43' W 070°12'0 0.0
2017-Aug-24 22:00N 43°43' W 070°12'0 0.0
2017-Aug-24 21:12N 43°43' W 070°12'0 0.0
2017-Aug-24 20:54N 43°43' W 070°12'0 0.0
2017-Aug-24 20:30N 43°43' W 070°12'0 0.0
2017-Aug-24 18:51N 43°43' W 070°12'0 0.0
2017-Aug-24 18:30N 43°43' W 070°12'0 0.0
2017-Aug-24 18:00N 43°43' W 070°12'0 0.0
2017-Aug-24 17:09N 43°43' W 070°12'0 0.0
2017-Aug-24 16:54N 43°43' W 070°12'0 0.0
2017-Aug-24 16:30N 43°43' W 070°12'0 0.0
2017-Aug-24 16:00N 43°43' W 070°12'0 0.0
2017-Aug-24 15:30N 43°43' W 070°12'0 0.0
2017-Aug-24 15:00N 43°43' W 070°12'0 0.0
2017-Aug-24 14:30N 43°43' W 070°12'0 0.0
2017-Aug-24 14:00N 43°43' W 070°12'0 0.0
2017-Aug-24 13:30N 43°43' W 070°12'0 0.0
2017-Aug-24 13:00N 43°43' W 070°12'0 0.0
2017-Aug-24 10:54N 43°43' W 070°12'0 0.0
2017-Aug-24 10:15N 43°43' W 070°12'0 0.0
2017-Aug-24 09:59N 43°43' W 070°12'0 0.0
2017-Aug-24 09:08N 43°43' W 070°12'0 0.0
2017-Aug-24 08:50N 43°43' W 070°12'0 0.0
2017-Aug-24 08:11N 43°43' W 070°12'0 0.0
2017-Aug-24 07:53N 43°43' W 070°12'0 0.0
2017-Aug-24 07:29N 43°43' W 070°12'0 0.0
2017-Aug-24 06:56N 43°43' W 070°12'0 0.0
2017-Aug-24 05:35N 43°43' W 070°12'0 0.0
2017-Aug-24 05:29N 43°43' W 070°12'0 0.0
2017-Aug-24 04:59N 43°43' W 070°12'0 0.0
2017-Aug-24 04:29N 43°43' W 070°12'0 0.0
2017-Aug-24 03:56N 43°43' W 070°12'0 0.0
2017-Aug-24 03:29N 43°43' W 070°12'0 0.0
2017-Aug-24 02:59N 43°43' W 070°12'0 0.0
2017-Aug-24 02:29N 43°43' W 070°12'0 0.0
2017-Aug-24 01:59N 43°43' W 070°12'0 0.0
2017-Aug-24 01:29N 43°43' W 070°12'0 0.0
2017-Aug-24 00:59N 43°43' W 070°12'0 0.0
2017-Aug-23 15:00N 43°43' W 070°12'0 0.0
2017-Aug-23 14:00N 43°43' W 070°12'0 0.0
2017-Aug-23 13:30N 43°43' W 070°12'0 0.0
2017-Aug-23 13:00N 43°43' W 070°12'0 0.0
2017-Aug-23 12:28N 43°43' W 070°12'0 0.0
2017-Aug-23 11:58N 43°43' W 070°12'0 0.0
2017-Aug-23 11:28N 43°43' W 070°12'0 0.0
2017-Aug-23 10:58N 43°43' W 070°12'0 0.0
2017-Aug-23 10:28N 43°43' W 070°12'0 0.0
2017-Aug-23 09:58N 43°43' W 070°12'0 0.0
2017-Aug-23 09:28N 43°43' W 070°12'0 0.0
2017-Aug-23 08:58N 43°43' W 070°12'0 0.0
2017-Aug-23 08:28N 43°43' W 070°12'0 0.0
2017-Aug-23 07:58N 43°43' W 070°12'0 0.0
2017-Aug-23 07:28N 43°43' W 070°12'0 0.0
2017-Aug-23 06:59N 43°43' W 070°12'0 0.0
2017-Aug-23 06:30N 43°43' W 070°12'0 0.0
2017-Aug-23 05:54N 43°43' W 070°12'0 0.0
2017-Aug-23 05:27N 43°43' W 070°12'0 0.0
2017-Aug-23 04:06N 43°43' W 070°12'0 0.0
2017-Aug-23 03:57N 43°43' W 070°12'0 0.0
2017-Aug-23 03:28N 43°43' W 070°12'0 0.0
2017-Aug-23 02:58N 43°43' W 070°12'0 0.0
2017-Aug-23 02:28N 43°43' W 070°12'0 0.0
2017-Aug-23 02:00N 43°43' W 070°12'0 0.0
2017-Aug-23 01:28N 43°43' W 070°12'0 0.0
2017-Aug-23 00:58N 43°43' W 070°12'0 0.0
2017-Aug-23 00:25N 43°43' W 070°12'0 0.0
2017-Aug-22 23:58N 43°43' W 070°12'0 0.0
2017-Aug-22 23:29N 43°43' W 070°12'0 0.0
2017-Aug-22 22:59N 43°43' W 070°12'0 0.0
2017-Aug-22 22:29N 43°43' W 070°12'0 0.0
2017-Aug-22 21:58N 43°43' W 070°12'0 0.0
2017-Aug-22 21:27N 43°43' W 070°12'0 0.0
2017-Aug-22 21:00N 43°43' W 070°12'0 0.0
2017-Aug-22 20:28N 43°43' W 070°12'0 0.0
2017-Aug-22 20:00N 43°43' W 070°12'0 0.0
2017-Aug-22 19:28N 43°43' W 070°12'0 0.0
2017-Aug-22 18:58N 43°43' W 070°12'0 0.0
2017-Aug-22 18:28N 43°43' W 070°12'0 0.0
2017-Aug-22 17:55N 43°43' W 070°12'0 0.0
2017-Aug-22 17:28N 43°43' W 070°12'0 0.0
2017-Aug-22 16:58N 43°43' W 070°12'0 0.0
2017-Aug-22 16:28N 43°43' W 070°12'0 0.0
2017-Aug-22 16:00N 43°43' W 070°12'0 0.0
2017-Aug-22 15:30N 43°43' W 070°12'0 0.0
2017-Aug-22 14:54N 43°43' W 070°12'0 0.0
2017-Aug-22 14:30N 43°43' W 070°12'0 0.0
2017-Aug-22 14:00N 43°43' W 070°12'0 0.0
2017-Aug-22 13:30N 43°43' W 070°12'0 0.0
2017-Aug-22 13:00N 43°43' W 070°12'0 0.0
2017-Aug-22 12:30N 43°43' W 070°12'0 0.0
2017-Aug-22 11:57N 43°43' W 070°12'0 0.0
2017-Aug-22 11:30N 43°43' W 070°12'0 0.0
2017-Aug-22 11:00N 43°43' W 070°12'0 0.0
2017-Aug-22 10:30N 43°43' W 070°12'0 0.0
2017-Aug-22 10:00N 43°43' W 070°12'0 0.0
2017-Aug-22 09:30N 43°43' W 070°12'0 0.0
2017-Aug-22 08:57N 43°43' W 070°12'0 0.0
2017-Aug-22 07:15N 43°43' W 070°12'0 0.0
2017-Aug-22 07:00N 43°43' W 070°12'0 0.0
2017-Aug-22 06:30N 43°43' W 070°12'0 0.0
2017-Aug-22 05:57N 43°43' W 070°12'0 0.0
2017-Aug-22 05:27N 43°43' W 070°12'0 0.0
2017-Aug-22 04:54N 43°43' W 070°12'0 0.0
2017-Aug-22 04:21N 43°43' W 070°12'0 0.0
2017-Aug-22 03:50N 43°43' W 070°12'0 0.0
2017-Aug-22 03:26N 43°43' W 070°12'0 0.0
2017-Aug-22 02:59N 43°43' W 070°12'0 0.0
2017-Aug-22 02:26N 43°43' W 070°12'0 0.0
2017-Aug-22 01:56N 43°43' W 070°12'0 0.0
2017-Aug-22 01:29N 43°43' W 070°12'0 0.0
2017-Aug-22 00:59N 43°43' W 070°12'0 0.0
2017-Aug-22 00:29N 43°43' W 070°12'0 0.0
2017-Aug-21 23:59N 43°43' W 070°12'0 0.0
2017-Aug-21 23:29N 43°43' W 070°12'0 0.0
2017-Aug-21 22:59N 43°43' W 070°12'0 0.0
2017-Aug-21 22:30N 43°43' W 070°12'0 0.0
2017-Aug-21 22:00N 43°43' W 070°12'0 0.0
2017-Aug-21 21:30N 43°43' W 070°12'0 0.0
2017-Aug-21 21:00N 43°43' W 070°12'0 0.0
2017-Aug-21 20:27N 43°43' W 070°12'0 0.0
2017-Aug-21 20:00N 43°43' W 070°12'0 0.0
2017-Aug-21 19:29N 43°43' W 070°12'0 0.0
2017-Aug-21 18:59N 43°43' W 070°12'0 0.0
2017-Aug-21 18:29N 43°43' W 070°12'0 0.0
2017-Aug-21 17:57N 43°43' W 070°12'0 0.0
2017-Aug-21 17:24N 43°43' W 070°12'0 0.0
2017-Aug-21 16:57N 43°43' W 070°12'0 0.0
2017-Aug-21 16:30N 43°43' W 070°12'0 0.0
2017-Aug-21 16:00N 43°43' W 070°12'0 0.0
2017-Aug-21 15:30N 43°43' W 070°12'0 0.0
2017-Aug-21 15:00N 43°43' W 070°12'0 0.0
2017-Aug-21 14:30N 43°43' W 070°12'0 0.0
2017-Aug-21 14:00N 43°43' W 070°12'0 0.0
2017-Aug-21 13:27N 43°43' W 070°12'0 0.0
2017-Aug-21 13:00N 43°43' W 070°12'0 0.0
2017-Aug-21 12:30N 43°43' W 070°12'0 0.0
2017-Aug-21 11:57N 43°43' W 070°12'0 0.0
2017-Aug-21 11:30N 43°43' W 070°12'0 0.0
2017-Aug-21 10:57N 43°43' W 070°12'0 0.0
2017-Aug-21 10:30N 43°43' W 070°12'0 0.0
2017-Aug-21 10:00N 43°43' W 070°12'0 0.0
2017-Aug-21 09:30N 43°43' W 070°12'0 0.0
2017-Aug-21 09:00N 43°43' W 070°12'0 0.0
2017-Aug-21 08:30N 43°43' W 070°12'0 0.0
2017-Aug-21 08:00N 43°43' W 070°12'0 0.0
2017-Aug-21 07:30N 43°43' W 070°12'0 0.0
2017-Aug-21 07:00N 43°43' W 070°12'0 0.0
2017-Aug-21 06:30N 43°43' W 070°12'0 0.0
2017-Aug-21 06:00N 43°43' W 070°12'0 0.0
2017-Aug-21 05:30N 43°43' W 070°12'0 0.0
2017-Aug-21 04:57N 43°43' W 070°12'0 0.0
2017-Aug-21 04:27N 43°43' W 070°12'0 0.0
2017-Aug-21 03:57N 43°43' W 070°12'0 0.0
2017-Aug-21 03:30N 43°43' W 070°12'0 0.0
2017-Aug-21 02:57N 43°43' W 070°12'0 0.0
2017-Aug-21 02:27N 43°43' W 070°12'0 0.0
2017-Aug-21 02:00N 43°43' W 070°12'0 0.0
2017-Aug-21 01:30N 43°43' W 070°12'0 0.0
2017-Aug-21 01:00N 43°43' W 070°12'0 0.0
2017-Aug-21 00:30N 43°43' W 070°12'0 0.7
2017-Aug-20 23:59N 43°44' W 070°12'0 0.7
2017-Aug-20 23:30N 43°43' W 070°12'  

Dump ship's entire track history